Waialua, Hawaii
Current Conditions -  °F | °C
As of 12:58 PM on Tuesday 25 Nov 2014 (Local Time) from PHHI Reporting Station
Few Clouds Few Clouds  
Wind Chill: 75°   Ceiling: Unl
Heat Index: 75°   Visibility: 10mi
Dew Point: 61°   Wind: 14mph
Humidity: 62%   Direction: 20°NNE
Pressure: 30.01"   Gusts: NA
Location:  21.57°N, 158.12°W
Report Text: PHHI 252258Z AUTO 02012KT 360V070 10SM FEW037 24/16 A3001 RMK AO2 SLP154 T02380160 $
Loading
Personal Weather Stations






























Interactive Weather Map New forecast layout! Learn more

10-Day Weather Forecast

Advertisements
Track Severe Weather on mobile